Time;durP1;ratioP1;P1;durP2;ratioP2;P2;SDS_P1;SDS_P2;PMS_P1;PMS_P2;Temp;Humidity;BMP_temperature;BMP_pressure;BME280_temperature;BME280_humidity;BME280_pressure;Samples;Min_cycle;Max_cycle;Signal;HPM_P1;HPM_P2
2023/03/31 00:01:24;;;;;;;;;;;13.90;99.90;;;;;;5054255;28;20113;-74
2023/03/31 00:03:50;;;;;;;;;;;13.90;99.90;;;;;;5052444;28;20006;-74
2023/03/31 00:06:18;;;;;;;;;;;13.90;99.90;;;;;;5054306;28;20385;-73
2023/03/31 00:08:45;;;;;;;;;;;13.90;99.90;;;;;;5052620;28;20432;-74
2023/03/31 00:11:10;;;;;;;;;;;13.90;99.90;;;;;;5052543;28;19915;-74
2023/03/31 00:13:36;;;;;;;;;;;13.90;99.90;;;;;;5054034;28;20082;-73
2023/03/31 00:16:04;;;;;;;;;;;13.90;99.90;;;;;;5052431;28;20353;-73
2023/03/31 00:18:29;;;;;;;;;;;14.00;99.90;;;;;;5053874;28;19917;-73
2023/03/31 00:21:05;;;;;;;;;;;14.00;99.90;;;;;;5052804;28;20003;-73
2023/03/31 00:23:31;;;;;;;;;;;14.00;99.90;;;;;;5053245;28;20428;-73
2023/03/31 00:25:57;;;;;;;;;;;14.00;99.90;;;;;;5051883;28;19909;-73
2023/03/31 00:28:22;;;;;;;;;;;14.00;99.90;;;;;;5053682;28;19916;-73
2023/03/31 00:30:48;;;;;;;;;;;13.90;99.90;;;;;;5053212;28;19909;-73
2023/03/31 00:33:14;;;;;;;;;;;13.90;99.90;;;;;;5051601;28;19916;-74
2023/03/31 00:35:40;;;;;;;;;;;14.00;99.90;;;;;;5053470;28;20315;-74
2023/03/31 00:38:12;;;;;;;;;;;13.90;99.90;;;;;;5051867;28;19908;-73
2023/03/31 00:40:43;;;;;;;;;;;14.00;99.90;;;;;;5054001;28;19987;-74
2023/03/31 00:43:16;;;;;;;;;;;13.90;99.90;;;;;;5057128;28;20017;-73
2023/03/31 00:45:41;;;;;;;;;;;13.90;99.90;;;;;;5057314;28;19920;-74
2023/03/31 00:48:12;;;;;;;;;;;13.90;99.90;;;;;;5055985;28;19913;-73
2023/03/31 00:50:46;;;;;;;;;;;14.00;99.90;;;;;;5057593;28;20219;-73
2023/03/31 00:53:14;;;;;;;;;;;14.10;99.90;;;;;;5057003;28;20285;-75
2023/03/31 00:55:42;;;;;;;;;;;14.10;99.90;;;;;;5057348;28;19956;-73
2023/03/31 00:58:08;;;;;;;;;;;14.00;99.90;;;;;;5055686;28;20042;-73
2023/03/31 01:00:34;;;;;;;;;;;14.00;99.90;;;;;;5057652;28;19908;-74
2023/03/31 01:03:02;;;;;;;;;;;14.00;99.90;;;;;;5055540;28;19975;-74
2023/03/31 01:05:46;;;;;;;;;;;13.90;99.90;;;;;;5057321;28;19912;-73
2023/03/31 01:08:13;;;;;;;;;;;14.00;99.90;;;;;;5056992;28;20361;-74
2023/03/31 01:10:40;;;;;;;;;;;14.00;99.90;;;;;;5056377;28;19913;-74
2023/03/31 01:13:08;;;;;;;;;;;14.00;99.90;;;;;;5054976;28;19920;-73
2023/03/31 01:15:35;;;;;;;;;;;14.00;99.90;;;;;;5057194;28;19916;-73
2023/03/31 01:18:02;;;;;;;;;;;14.00;99.90;;;;;;5055335;28;19909;-73
2023/03/31 01:20:46;;;;;;;;;;;14.10;99.90;;;;;;5056073;28;19980;-73
2023/03/31 01:23:27;;;;;;;;;;;14.00;99.90;;;;;;5054735;28;19935;-73
2023/03/31 01:25:53;;;;;;;;;;;14.10;99.90;;;;;;5054933;28;19916;-73
2023/03/31 01:28:38;;;;;;;;;;;14.00;99.90;;;;;;5055491;28;20310;-73
2023/03/31 01:31:13;;;;;;;;;;;14.00;99.90;;;;;;5055153;28;19931;-74
2023/03/31 01:33:48;;;;;;;;;;;14.00;99.90;;;;;;5054543;28;20386;-73
2023/03/31 01:36:38;;;;;;;;;;;14.00;99.90;;;;;;5054978;28;20190;-73
2023/03/31 01:39:28;;;;;;;;;;;14.00;99.90;;;;;;5055102;28;19909;-73
2023/03/31 01:42:12;;;;;;;;;;;13.90;99.90;;;;;;5056855;28;19963;-73
2023/03/31 01:44:38;;;;;;;;;;;13.90;99.90;;;;;;5056877;28;19913;-73
2023/03/31 01:47:30;;;;;;;;;;;13.90;99.90;;;;;;5055221;28;20379;-73
2023/03/31 01:50:00;;;;;;;;;;;13.90;99.90;;;;;;5056265;28;19909;-73
2023/03/31 01:52:35;;;;;;;;;;;13.80;99.90;;;;;;5053297;28;20290;-75
2023/03/31 01:55:03;;;;;;;;;;;13.90;99.90;;;;;;5056581;28;19915;-74
2023/03/31 01:57:34;;;;;;;;;;;13.80;99.90;;;;;;5054155;28;19909;-73
2023/03/31 02:00:07;;;;;;;;;;;13.90;99.90;;;;;;5054418;28;19913;-75
2023/03/31 02:02:37;;;;;;;;;;;13.90;99.90;;;;;;5055002;28;19909;-74
2023/03/31 02:05:06;;;;;;;;;;;13.90;99.90;;;;;;5055700;28;19931;-73
2023/03/31 02:07:34;;;;;;;;;;;13.90;99.90;;;;;;5055893;28;20425;-72
2023/03/31 02:10:02;;;;;;;;;;;14.00;99.90;;;;;;5054451;28;19920;-73
2023/03/31 02:12:29;;;;;;;;;;;14.00;99.90;;;;;;5055416;28;19909;-73
2023/03/31 02:14:57;;;;;;;;;;;14.00;99.90;;;;;;5054000;28;19909;-73
2023/03/31 02:17:31;;;;;;;;;;;14.10;99.90;;;;;;5054344;28;19951;-74
2023/03/31 02:20:00;;;;;;;;;;;14.00;99.90;;;;;;5055931;28;19909;-73
2023/03/31 02:22:28;;;;;;;;;;;13.90;99.90;;;;;;5055604;28;19909;-73
2023/03/31 02:24:55;;;;;;;;;;;13.90;99.90;;;;;;5055654;28;20001;-73
2023/03/31 02:27:26;;;;;;;;;;;14.00;99.90;;;;;;5054335;28;19908;-74
2023/03/31 02:29:55;;;;;;;;;;;14.10;99.90;;;;;;5054514;28;19909;-73
2023/03/31 02:32:22;;;;;;;;;;;14.00;99.90;;;;;;5055450;28;20363;-75
2023/03/31 02:34:48;;;;;;;;;;;14.00;99.90;;;;;;5053376;28;20362;-73
2023/03/31 02:37:14;;;;;;;;;;;13.90;99.90;;;;;;5054522;28;19963;-74
2023/03/31 02:39:41;;;;;;;;;;;13.90;99.90;;;;;;5055391;28;20008;-74
2023/03/31 02:42:08;;;;;;;;;;;13.90;99.90;;;;;;5055488;28;19915;-75
2023/03/31 02:44:34;;;;;;;;;;;13.90;99.90;;;;;;5054404;28;19920;-74
2023/03/31 02:47:01;;;;;;;;;;;13.90;99.90;;;;;;5053761;28;19913;-74
2023/03/31 02:49:26;;;;;;;;;;;13.90;99.90;;;;;;5052941;28;19955;-75
2023/03/31 02:52:11;;;;;;;;;;;13.90;99.90;;;;;;5054210;28;19952;-75
2023/03/31 02:54:45;;;;;;;;;;;13.90;99.90;;;;;;5052112;28;19959;-75
2023/03/31 02:57:38;;;;;;;;;;;13.90;99.90;;;;;;5053125;28;19937;-74
2023/03/31 03:00:23;;;;;;;;;;;13.90;99.90;;;;;;5055340;28;19973;-75
2023/03/31 03:02:58;;;;;;;;;;;13.90;99.90;;;;;;5054361;28;19909;-75
2023/03/31 03:05:33;;;;;;;;;;;13.90;99.90;;;;;;5053300;28;19989;-75
2023/03/31 03:08:08;;;;;;;;;;;13.90;99.90;;;;;;5054707;28;19913;-75
2023/03/31 03:10:53;;;;;;;;;;;13.90;99.90;;;;;;5054716;28;19920;-75
2023/03/31 03:13:18;;;;;;;;;;;14.00;99.90;;;;;;5054093;28;19915;-75
2023/03/31 03:15:49;;;;;;;;;;;14.00;99.90;;;;;;5054356;28;19940;-75
2023/03/31 03:18:15;;;;;;;;;;;14.00;99.90;;;;;;5053141;28;19909;-76
2023/03/31 03:20:42;;;;;;;;;;;14.10;99.90;;;;;;5054370;28;20042;-74
2023/03/31 03:23:08;;;;;;;;;;;14.00;99.90;;;;;;5052487;28;19913;-74
2023/03/31 03:25:34;;;;;;;;;;;14.00;99.90;;;;;;5054675;28;19909;-74
2023/03/31 03:28:00;;;;;;;;;;;14.00;99.90;;;;;;5053927;28;20003;-75
2023/03/31 03:30:25;;;;;;;;;;;14.00;99.90;;;;;;5053710;28;19910;-74
2023/03/31 03:32:53;;;;;;;;;;;13.90;99.90;;;;;;5053691;28;19909;-75
2023/03/31 03:35:19;;;;;;;;;;;13.90;99.90;;;;;;5052743;28;20398;-74
2023/03/31 03:37:45;;;;;;;;;;;13.90;99.90;;;;;;5054355;28;19909;-74
2023/03/31 03:40:11;;;;;;;;;;;14.00;99.90;;;;;;5054391;28;19909;-73
2023/03/31 03:42:37;;;;;;;;;;;14.00;99.90;;;;;;5053821;28;19947;-73
2023/03/31 03:45:03;;;;;;;;;;;14.00;99.90;;;;;;5054084;28;19916;-73
2023/03/31 03:47:29;;;;;;;;;;;14.00;99.90;;;;;;5052512;28;19916;-75
2023/03/31 03:49:55;;;;;;;;;;;14.00;99.90;;;;;;5053535;28;20355;-75
2023/03/31 03:52:21;;;;;;;;;;;14.00;99.90;;;;;;5052238;28;20016;-75
2023/03/31 03:54:46;;;;;;;;;;;14.00;99.90;;;;;;5053727;28;19909;-74
2023/03/31 03:57:12;;;;;;;;;;;14.00;99.90;;;;;;5053182;28;19945;-74
2023/03/31 03:59:38;;;;;;;;;;;14.00;99.90;;;;;;5053575;28;20004;-74
2023/03/31 04:02:04;;;;;;;;;;;13.90;99.90;;;;;;5053714;28;19917;-74
2023/03/31 04:04:30;;;;;;;;;;;14.00;99.90;;;;;;5052022;28;19921;-77
2023/03/31 04:06:58;;;;;;;;;;;14.00;99.90;;;;;;5053923;28;19909;-75
2023/03/31 04:09:24;;;;;;;;;;;13.90;99.90;;;;;;5052509;28;20381;-74
2023/03/31 04:11:50;;;;;;;;;;;13.90;99.90;;;;;;5053782;28;19913;-75
2023/03/31 04:14:16;;;;;;;;;;;13.90;99.90;;;;;;5053509;28;19944;-75
2023/03/31 04:16:41;;;;;;;;;;;13.90;99.90;;;;;;5052990;28;20155;-75
2023/03/31 04:19:10;;;;;;;;;;;13.90;99.90;;;;;;5052121;28;19909;-75
2023/03/31 04:21:36;;;;;;;;;;;13.90;99.90;;;;;;5053620;28;19909;-75
2023/03/31 04:24:03;;;;;;;;;;;13.90;99.90;;;;;;5051372;28;19924;-76
2023/03/31 04:26:37;;;;;;;;;;;13.90;99.90;;;;;;5053678;28;20019;-74
2023/03/31 04:29:06;;;;;;;;;;;13.90;99.90;;;;;;5053719;28;20345;-75
2023/03/31 04:31:32;;;;;;;;;;;13.90;99.90;;;;;;5052223;28;19916;-76
2023/03/31 04:34:01;;;;;;;;;;;13.90;99.90;;;;;;5053439;28;20406;-77
2023/03/31 04:36:30;;;;;;;;;;;13.90;99.90;;;;;;5053435;28;19940;-73
2023/03/31 04:38:56;;;;;;;;;;;13.90;99.90;;;;;;5053762;28;19908;-76
2023/03/31 04:41:22;;;;;;;;;;;13.80;99.90;;;;;;5053563;28;19909;-74
2023/03/31 04:43:48;;;;;;;;;;;13.80;99.90;;;;;;5052955;28;20446;-75
2023/03/31 04:46:14;;;;;;;;;;;13.80;99.90;;;;;;5053474;28;19947;-73
2023/03/31 04:48:40;;;;;;;;;;;13.90;99.90;;;;;;5053466;28;20282;-75
2023/03/31 04:51:06;;;;;;;;;;;13.90;99.90;;;;;;5053709;28;19919;-73
2023/03/31 04:53:32;;;;;;;;;;;13.90;99.90;;;;;;5052224;28;19913;-74
2023/03/31 04:55:57;;;;;;;;;;;13.80;99.90;;;;;;5051936;28;19909;-74
2023/03/31 04:58:23;;;;;;;;;;;13.80;99.90;;;;;;5052492;28;19908;-75
2023/03/31 05:00:49;;;;;;;;;;;13.80;99.90;;;;;;5052276;28;19909;-75
2023/03/31 05:03:14;;;;;;;;;;;13.90;99.90;;;;;;5052961;28;19998;-75
2023/03/31 05:05:40;;;;;;;;;;;13.90;99.90;;;;;;5052789;28;19971;-74
2023/03/31 05:08:06;;;;;;;;;;;13.90;99.90;;;;;;5051681;28;19909;-73
2023/03/31 05:10:32;;;;;;;;;;;13.80;99.90;;;;;;5051379;28;20304;-75
2023/03/31 05:12:57;;;;;;;;;;;13.80;99.90;;;;;;5053060;28;19909;-75
2023/03/31 05:15:23;;;;;;;;;;;13.90;99.90;;;;;;5051648;28;19909;-75
2023/03/31 05:17:51;;;;;;;;;;;13.90;99.90;;;;;;5053030;28;19970;-75
2023/03/31 05:20:18;;;;;;;;;;;13.90;99.90;;;;;;5051853;28;19920;-74
2023/03/31 05:22:44;;;;;;;;;;;13.90;99.90;;;;;;5052670;28;19913;-74
2023/03/31 05:25:10;;;;;;;;;;;13.80;99.90;;;;;;5051410;28;19917;-76
2023/03/31 05:27:36;;;;;;;;;;;13.80;99.90;;;;;;5054991;28;19916;-75
2023/03/31 05:30:02;;;;;;;;;;;13.80;99.90;;;;;;5056599;28;19909;-74
2023/03/31 05:32:28;;;;;;;;;;;13.90;99.90;;;;;;5055757;28;19970;-74
2023/03/31 05:34:56;;;;;;;;;;;13.90;99.90;;;;;;5055038;28;19908;-75
2023/03/31 05:37:23;;;;;;;;;;;13.90;99.90;;;;;;5056222;28;19909;-74
2023/03/31 05:39:49;;;;;;;;;;;13.90;99.90;;;;;;5056472;28;19912;-74
2023/03/31 05:42:15;;;;;;;;;;;13.80;99.90;;;;;;5054204;28;20374;-76
2023/03/31 05:44:40;;;;;;;;;;;13.80;99.90;;;;;;5055385;28;19921;-74
2023/03/31 05:47:06;;;;;;;;;;;13.80;99.90;;;;;;5056196;28;19909;-74
2023/03/31 05:49:32;;;;;;;;;;;13.90;99.90;;;;;;5055847;28;19909;-74
2023/03/31 05:51:57;;;;;;;;;;;13.90;99.90;;;;;;5055863;28;19909;-74
2023/03/31 05:54:23;;;;;;;;;;;13.90;99.90;;;;;;5055743;28;19908;-74
2023/03/31 05:56:49;;;;;;;;;;;13.90;99.90;;;;;;5055635;28;19909;-76
2023/03/31 05:59:15;;;;;;;;;;;13.90;99.90;;;;;;5055899;28;20008;-74
2023/03/31 06:01:40;;;;;;;;;;;14.00;99.90;;;;;;5054453;28;19909;-74
2023/03/31 06:04:06;;;;;;;;;;;14.10;99.90;;;;;;5055492;28;19919;-74
2023/03/31 06:06:33;;;;;;;;;;;14.10;99.90;;;;;;5053643;28;19919;-75
2023/03/31 06:08:59;;;;;;;;;;;14.10;99.90;;;;;;5054612;28;19913;-75
2023/03/31 06:11:25;;;;;;;;;;;14.20;99.90;;;;;;5055117;28;20239;-74
2023/03/31 06:13:51;;;;;;;;;;;14.30;99.90;;;;;;5054750;28;19909;-74
2023/03/31 06:16:17;;;;;;;;;;;14.40;99.90;;;;;;5054165;28;20389;-74
2023/03/31 06:18:43;;;;;;;;;;;14.50;99.90;;;;;;5054033;28;20004;-73
2023/03/31 06:21:13;;;;;;;;;;;14.60;99.90;;;;;;5054369;28;19916;-74
2023/03/31 06:23:38;;;;;;;;;;;14.60;99.90;;;;;;5054969;28;19917;-75
2023/03/31 06:26:06;;;;;;;;;;;14.60;99.90;;;;;;5054770;28;19932;-74
2023/03/31 06:28:35;;;;;;;;;;;14.60;99.90;;;;;;5055161;28;19909;-75
2023/03/31 06:31:01;;;;;;;;;;;14.60;99.90;;;;;;5055092;28;20403;-75
2023/03/31 06:33:27;;;;;;;;;;;14.50;99.90;;;;;;5055196;28;20232;-75
2023/03/31 06:35:54;;;;;;;;;;;14.50;99.90;;;;;;5055382;28;19931;-75
2023/03/31 06:38:20;;;;;;;;;;;14.60;99.90;;;;;;5055094;28;20460;-76
2023/03/31 06:40:46;;;;;;;;;;;14.70;99.90;;;;;;5055410;28;19909;-75
2023/03/31 06:43:11;;;;;;;;;;;14.70;99.90;;;;;;5054983;28;20339;-77
2023/03/31 06:45:37;;;;;;;;;;;14.80;99.90;;;;;;5054872;28;19935;-74
2023/03/31 06:48:03;;;;;;;;;;;14.80;99.90;;;;;;5055304;28;20381;-75
2023/03/31 06:50:28;;;;;;;;;;;14.80;99.90;;;;;;5054789;28;19935;-74
2023/03/31 06:52:54;;;;;;;;;;;14.70;99.90;;;;;;5054722;28;19923;-74
2023/03/31 06:55:20;;;;;;;;;;;14.70;99.90;;;;;;5054614;28;19913;-74
2023/03/31 06:57:46;;;;;;;;;;;14.70;99.90;;;;;;5054465;28;19910;-75
2023/03/31 07:00:12;;;;;;;;;;;14.70;99.90;;;;;;5053322;28;20020;-75
2023/03/31 07:02:46;;;;;;;;;;;14.80;99.90;;;;;;5056674;28;19996;-74
2023/03/31 07:05:12;;;;;;;;;;;14.80;99.90;;;;;;5055100;28;20266;-75
2023/03/31 07:07:38;;;;;;;;;;;14.70;99.90;;;;;;5055427;28;19909;-75
2023/03/31 07:10:04;;;;;;;;;;;14.70;99.90;;;;;;5053397;28;19966;-74
2023/03/31 07:12:31;;;;;;;;;;;14.70;99.90;;;;;;5053099;28;19919;-74
2023/03/31 07:14:57;;;;;;;;;;;14.70;99.90;;;;;;5054269;28;19909;-74
2023/03/31 07:17:24;;;;;;;;;;;14.60;99.90;;;;;;5053476;28;20446;-75
2023/03/31 07:19:49;;;;;;;;;;;14.70;99.90;;;;;;5053116;28;19923;-75
2023/03/31 07:22:15;;;;;;;;;;;14.80;99.90;;;;;;5053003;28;20004;-74
2023/03/31 07:24:41;;;;;;;;;;;14.80;99.90;;;;;;5051898;28;19917;-75
2023/03/31 07:27:07;;;;;;;;;;;14.70;99.90;;;;;;5052533;28;19909;-74
2023/03/31 07:29:32;;;;;;;;;;;14.80;99.90;;;;;;5052800;28;19909;-74
2023/03/31 07:31:58;;;;;;;;;;;14.80;99.90;;;;;;5052527;28;19909;-75
2023/03/31 07:34:24;;;;;;;;;;;14.80;99.90;;;;;;5052170;28;19909;-74
2023/03/31 07:36:50;;;;;;;;;;;14.80;99.90;;;;;;5053240;28;19917;-76
2023/03/31 07:39:16;;;;;;;;;;;14.80;99.90;;;;;;5054302;28;20283;-74
2023/03/31 07:41:41;;;;;;;;;;;14.80;99.90;;;;;;5054220;28;19908;-75
2023/03/31 07:44:07;;;;;;;;;;;14.80;99.90;;;;;;5053751;28;19913;-74
2023/03/31 07:46:33;;;;;;;;;;;14.80;99.90;;;;;;5052650;28;20007;-74
2023/03/31 07:49:01;;;;;;;;;;;14.80;99.90;;;;;;5055968;28;19915;-73
2023/03/31 07:51:26;;;;;;;;;;;14.80;99.90;;;;;;5052677;28;20271;-73
2023/03/31 07:53:52;;;;;;;;;;;14.80;99.90;;;;;;5056824;28;19909;-75
2023/03/31 07:56:22;;;;;;;;;;;14.80;99.90;;;;;;5052922;28;19916;-75
2023/03/31 07:58:48;;;;;;;;;;;14.80;99.90;;;;;;5053251;28;19931;-75
2023/03/31 08:01:15;;;;;;;;;;;14.90;99.90;;;;;;5052808;28;19909;-75
2023/03/31 08:03:42;;;;;;;;;;;14.90;99.90;;;;;;5053211;28;19913;-74
2023/03/31 08:06:07;;;;;;;;;;;14.80;99.90;;;;;;5054159;28;19932;-75
2023/03/31 08:08:33;;;;;;;;;;;14.80;99.90;;;;;;5053355;28;19909;-75
2023/03/31 08:10:59;;;;;;;;;;;14.90;99.90;;;;;;5052766;28;19971;-74
2023/03/31 08:13:24;;;;;;;;;;;14.90;99.90;;;;;;5052774;28;19909;-76
2023/03/31 08:15:50;;;;;;;;;;;15.00;99.90;;;;;;5053344;28;19908;-75
2023/03/31 08:18:16;;;;;;;;;;;15.00;99.90;;;;;;5053576;28;20298;-75
2023/03/31 08:20:42;;;;;;;;;;;15.00;99.90;;;;;;5052167;28;19959;-75
2023/03/31 08:23:10;;;;;;;;;;;15.00;99.90;;;;;;5051560;28;19912;-73
2023/03/31 08:25:36;;;;;;;;;;;14.90;99.90;;;;;;5052101;28;19913;-74
2023/03/31 08:28:02;;;;;;;;;;;14.90;99.90;;;;;;5053307;28;19919;-74
2023/03/31 08:30:27;;;;;;;;;;;14.80;99.90;;;;;;5051954;28;19913;-76
2023/03/31 08:32:53;;;;;;;;;;;14.80;99.90;;;;;;5053294;28;19916;-75
2023/03/31 08:35:19;;;;;;;;;;;14.80;99.90;;;;;;5052317;28;19916;-75
2023/03/31 08:37:44;;;;;;;;;;;14.70;99.90;;;;;;5053377;28;19915;-75
2023/03/31 08:40:21;;;;;;;;;;;14.80;99.90;;;;;;5052147;28;19909;-73
2023/03/31 08:42:51;;;;;;;;;;;14.80;99.90;;;;;;5053071;28;20375;-75
2023/03/31 08:45:30;;;;;;;;;;;14.90;99.90;;;;;;5053512;28;20294;-75
2023/03/31 08:48:09;;;;;;;;;;;14.90;99.90;;;;;;5052110;28;19932;-76
2023/03/31 08:50:38;;;;;;;;;;;15.00;99.90;;;;;;5053064;28;19909;-75
2023/03/31 08:53:16;;;;;;;;;;;15.10;99.90;;;;;;5053368;28;19908;-76
2023/03/31 08:55:54;;;;;;;;;;;15.20;99.90;;;;;;5053212;28;19931;-76
2023/03/31 08:58:28;;;;;;;;;;;15.30;99.90;;;;;;5051236;28;19912;-75
2023/03/31 09:01:00;;;;;;;;;;;15.50;99.90;;;;;;5053035;28;19909;-75
2023/03/31 09:03:41;;;;;;;;;;;15.70;99.90;;;;;;5055744;28;19954;-75
2023/03/31 09:06:11;;;;;;;;;;;15.90;99.90;;;;;;5056926;28;19916;-75
2023/03/31 09:08:38;;;;;;;;;;;16.10;99.90;;;;;;5057013;28;19947;-75
2023/03/31 09:11:03;;;;;;;;;;;16.20;99.90;;;;;;5057041;28;19909;-74
2023/03/31 09:13:37;;;;;;;;;;;16.40;99.90;;;;;;5055102;28;19942;-78
2023/03/31 09:16:06;;;;;;;;;;;16.40;99.90;;;;;;5056799;28;19948;-77
2023/03/31 09:18:35;;;;;;;;;;;16.40;99.90;;;;;;5056562;28;19920;-79
2023/03/31 09:21:21;;;;;;;;;;;16.50;99.90;;;;;;5056030;28;19966;-76
2023/03/31 09:23:56;;;;;;;;;;;16.50;99.90;;;;;;5055885;28;20008;-76
2023/03/31 09:26:25;;;;;;;;;;;16.60;99.90;;;;;;5056351;28;19916;-76
2023/03/31 09:28:52;;;;;;;;;;;16.50;99.90;;;;;;5057188;28;19916;-76
2023/03/31 09:31:19;;;;;;;;;;;16.40;99.90;;;;;;5054816;28;19908;-75
2023/03/31 09:33:45;;;;;;;;;;;16.40;99.90;;;;;;5056359;28;19959;-74
2023/03/31 09:36:15;;;;;;;;;;;16.40;99.90;;;;;;5055451;28;19930;-75
2023/03/31 09:38:42;;;;;;;;;;;16.30;99.90;;;;;;5055893;28;19937;-75
2023/03/31 09:41:08;;;;;;;;;;;16.30;99.90;;;;;;5056139;28;20333;-75
2023/03/31 09:43:34;;;;;;;;;;;16.10;99.90;;;;;;5054970;28;20334;-75
2023/03/31 09:46:00;;;;;;;;;;;15.90;99.90;;;;;;5054520;28;19913;-75
2023/03/31 09:48:28;;;;;;;;;;;15.90;99.90;;;;;;5054312;28;19928;-75
2023/03/31 09:50:56;;;;;;;;;;;15.70;99.90;;;;;;5052745;28;19962;-75
2023/03/31 09:53:28;;;;;;;;;;;15.70;99.90;;;;;;5053960;28;19944;-75
2023/03/31 09:55:59;;;;;;;;;;;15.60;99.90;;;;;;5054334;28;19909;-75
2023/03/31 09:58:25;;;;;;;;;;;15.70;99.90;;;;;;5053580;28;20379;-74
2023/03/31 10:00:56;;;;;;;;;;;15.70;99.90;;;;;;5052969;28;19995;-75
2023/03/31 10:03:23;;;;;;;;;;;15.80;99.90;;;;;;5054859;28;20258;-76
2023/03/31 10:05:50;;;;;;;;;;;15.80;99.90;;;;;;5055636;28;20375;-76
2023/03/31 10:08:18;;;;;;;;;;;15.80;99.90;;;;;;5055544;28;20002;-75
2023/03/31 10:10:45;;;;;;;;;;;15.70;99.90;;;;;;5054108;28;19909;-76
2023/03/31 10:13:14;;;;;;;;;;;15.70;99.90;;;;;;5054477;28;19908;-76
2023/03/31 10:15:40;;;;;;;;;;;15.70;99.90;;;;;;5054127;28;19917;-75
2023/03/31 10:18:12;;;;;;;;;;;15.80;99.90;;;;;;5054975;28;19912;-75
2023/03/31 10:20:41;;;;;;;;;;;15.90;99.90;;;;;;5054213;28;19909;-75
2023/03/31 10:23:19;;;;;;;;;;;16.00;99.90;;;;;;5055073;28;19924;-75
2023/03/31 10:25:46;;;;;;;;;;;16.00;99.90;;;;;;5053549;28;19916;-75
2023/03/31 10:28:14;;;;;;;;;;;16.10;99.90;;;;;;5054915;28;20381;-75
2023/03/31 10:30:46;;;;;;;;;;;16.30;99.90;;;;;;5052846;28;19912;-76
2023/03/31 10:33:14;;;;;;;;;;;16.50;99.90;;;;;;5054386;28;19991;-76
2023/03/31 10:35:40;;;;;;;;;;;16.70;99.90;;;;;;5053082;28;19935;-76
2023/03/31 10:38:09;;;;;;;;;;;17.00;99.90;;;;;;5053088;28;19913;-76
2023/03/31 10:40:35;;;;;;;;;;;17.20;99.90;;;;;;5055829;28;20362;-75
2023/03/31 10:43:01;;;;;;;;;;;17.40;99.90;;;;;;5053417;28;19932;-75
2023/03/31 10:45:36;;;;;;;;;;;17.50;99.90;;;;;;5054851;28;19959;-75
2023/03/31 10:48:01;;;;;;;;;;;17.40;99.90;;;;;;5054868;28;20170;-75
2023/03/31 10:50:35;;;;;;;;;;;17.30;99.90;;;;;;5054379;28;19909;-75
2023/03/31 10:53:13;;;;;;;;;;;17.20;99.90;;;;;;5053551;28;19913;-75
2023/03/31 10:55:42;;;;;;;;;;;17.30;99.90;;;;;;5055349;28;19943;-76
2023/03/31 10:58:10;;;;;;;;;;;17.30;99.90;;;;;;5054688;28;19963;-75
2023/03/31 11:00:43;;;;;;;;;;;17.30;99.90;;;;;;5055604;28;20351;-76
2023/03/31 11:03:08;;;;;;;;;;;17.50;99.90;;;;;;5055558;28;20327;-76
2023/03/31 11:05:43;;;;;;;;;;;17.50;99.90;;;;;;5057106;28;19912;-76
2023/03/31 11:08:20;;;;;;;;;;;17.70;99.90;;;;;;5053930;28;19909;-76
2023/03/31 11:10:45;;;;;;;;;;;17.80;99.90;;;;;;5053925;28;19916;-76
2023/03/31 11:13:11;;;;;;;;;;;18.00;99.90;;;;;;5056090;28;19908;-75
2023/03/31 11:15:45;;;;;;;;;;;18.00;99.90;;;;;;5053956;28;19909;-76
2023/03/31 11:18:30;;;;;;;;;;;18.00;99.90;;;;;;5058048;28;19996;-76
2023/03/31 11:21:02;;;;;;;;;;;17.90;99.90;;;;;;5055569;28;19935;-76
2023/03/31 11:23:30;;;;;;;;;;;17.80;99.90;;;;;;5055714;28;19921;-75
2023/03/31 11:25:59;;;;;;;;;;;17.60;99.90;;;;;;5053130;28;19962;-75
2023/03/31 11:28:43;;;;;;;;;;;17.50;99.90;;;;;;5054143;28;20290;-75
2023/03/31 11:31:21;;;;;;;;;;;17.50;99.90;;;;;;5053009;28;19916;-75
2023/03/31 11:34:02;;;;;;;;;;;17.50;99.90;;;;;;5054613;28;19963;-75
2023/03/31 11:36:30;;;;;;;;;;;17.40;99.90;;;;;;5053156;28;19909;-75
2023/03/31 11:39:02;;;;;;;;;;;17.50;99.90;;;;;;5052750;28;19995;-76
2023/03/31 11:41:31;;;;;;;;;;;17.40;99.90;;;;;;5051741;28;20256;-75
2023/03/31 11:44:02;;;;;;;;;;;17.20;99.90;;;;;;5051105;28;19913;-75
2023/03/31 11:46:47;;;;;;;;;;;17.10;99.90;;;;;;5052679;28;19999;-75
2023/03/31 11:49:13;;;;;;;;;;;16.90;99.90;;;;;;5053104;28;19909;-75
2023/03/31 11:51:41;;;;;;;;;;;16.80;99.90;;;;;;5051604;28;20290;-75
2023/03/31 11:54:11;;;;;;;;;;;16.70;99.90;;;;;;5051596;28;19908;-75
2023/03/31 11:56:38;;;;;;;;;;;16.80;99.90;;;;;;5052645;28;19908;-75
2023/03/31 11:59:05;;;;;;;;;;;16.80;99.90;;;;;;5053271;28;19909;-76
2023/03/31 12:01:41;;;;;;;;;;;16.80;99.90;;;;;;5053118;28;20003;-75
2023/03/31 12:04:27;;;;;;;;;;;16.80;99.90;;;;;;5050322;28;19913;-75
2023/03/31 12:06:57;;;;;;;;;;;16.80;99.90;;;;;;5052097;28;20412;-75
2023/03/31 12:09:29;;;;;;;;;;;16.80;99.90;;;;;;5052435;28;19909;-75
2023/03/31 12:12:13;;;;;;;;;;;16.90;99.90;;;;;;5052288;28;19908;-75
2023/03/31 12:14:50;;;;;;;;;;;17.00;99.90;;;;;;5050393;28;19919;-75
2023/03/31 12:17:18;;;;;;;;;;;17.10;99.90;;;;;;5050627;28;19963;-75
2023/03/31 12:19:58;;;;;;;;;;;17.00;99.90;;;;;;5051114;28;19966;-75
2023/03/31 12:22:32;;;;;;;;;;;17.10;99.90;;;;;;5050926;28;20000;-75
2023/03/31 12:24:58;;;;;;;;;;;17.20;99.90;;;;;;5052126;28;20333;-75
2023/03/31 12:27:26;;;;;;;;;;;17.20;99.90;;;;;;5052245;28;19908;-75
2023/03/31 12:30:10;;;;;;;;;;;17.10;99.90;;;;;;5052159;28;19931;-75
2023/03/31 12:32:39;;;;;;;;;;;17.20;99.90;;;;;;5052007;28;19909;-75
2023/03/31 12:35:11;;;;;;;;;;;17.30;99.90;;;;;;5052425;28;19908;-75
2023/03/31 12:37:43;;;;;;;;;;;17.50;99.90;;;;;;5051669;28;20275;-75
2023/03/31 12:40:26;;;;;;;;;;;17.50;99.90;;;;;;5051876;28;19909;-75
2023/03/31 12:42:52;;;;;;;;;;;17.60;99.90;;;;;;5049972;28;19908;-75
2023/03/31 12:45:17;;;;;;;;;;;17.60;99.90;;;;;;5050127;28;20337;-75
2023/03/31 12:47:46;;;;;;;;;;;17.60;99.90;;;;;;5050164;28;20461;-75
2023/03/31 12:50:23;;;;;;;;;;;17.60;99.90;;;;;;5051835;28;19909;-75
2023/03/31 12:53:07;;;;;;;;;;;17.60;99.90;;;;;;5051619;28;19955;-75
2023/03/31 12:55:41;;;;;;;;;;;17.50;99.90;;;;;;5051788;28;19948;-75
2023/03/31 12:58:33;;;;;;;;;;;17.50;99.90;;;;;;5051919;28;20333;-75
2023/03/31 13:01:09;;;;;;;;;;;17.60;99.90;;;;;;5051797;28;19912;-75
2023/03/31 13:03:34;;;;;;;;;;;17.60;99.90;;;;;;5051730;28;19995;-76
2023/03/31 13:06:03;;;;;;;;;;;17.70;99.90;;;;;;5051822;28;19913;-75
2023/03/31 13:08:49;;;;;;;;;;;17.70;99.90;;;;;;5052215;28;19916;-75
2023/03/31 13:11:16;;;;;;;;;;;17.80;99.90;;;;;;5051489;28;20367;-75
2023/03/31 13:13:51;;;;;;;;;;;17.90;99.90;;;;;;5050125;28;20370;-75
2023/03/31 13:16:20;;;;;;;;;;;17.90;99.90;;;;;;5050264;28;20371;-75
2023/03/31 13:18:52;;;;;;;;;;;18.00;99.90;;;;;;5052056;28;19916;-76
2023/03/31 13:21:18;;;;;;;;;;;18.00;99.90;;;;;;5051645;28;20167;-76
2023/03/31 13:23:47;;;;;;;;;;;18.10;99.90;;;;;;5051483;28;19920;-76
2023/03/31 13:26:31;;;;;;;;;;;18.20;99.90;;;;;;5053283;28;19913;-76
2023/03/31 13:29:09;;;;;;;;;;;18.30;99.90;;;;;;5051744;28;19908;-76
2023/03/31 13:31:54;;;;;;;;;;;18.20;99.90;;;;;;5051695;28;20337;-76
2023/03/31 13:34:20;;;;;;;;;;;18.20;99.90;;;;;;5050909;28;19909;-75
2023/03/31 13:36:55;;;;;;;;;;;18.00;99.90;;;;;;5051027;28;19947;-76
2023/03/31 13:39:39;;;;;;;;;;;17.90;99.90;;;;;;5051222;28;19915;-75
2023/03/31 13:42:23;;;;;;;;;;;17.90;99.90;;;;;;5051278;28;19909;-75
2023/03/31 13:44:59;;;;;;;;;;;17.60;99.90;;;;;;5049669;28;19913;-75
2023/03/31 13:47:43;;;;;;;;;;;17.50;99.90;;;;;;5051546;28;19915;-75
2023/03/31 13:50:12;;;;;;;;;;;17.50;99.90;;;;;;5052905;28;19909;-76
2023/03/31 13:52:56;;;;;;;;;;;17.50;99.90;;;;;;5056945;28;20405;-75
2023/03/31 13:55:22;;;;;;;;;;;17.40;99.90;;;;;;5059404;28;19995;-75
2023/03/31 13:57:48;;;;;;;;;;;17.30;99.90;;;;;;5058174;28;20345;-75
2023/03/31 14:00:33;;;;;;;;;;;17.30;99.90;;;;;;5064373;28;19908;-75
2023/03/31 14:03:20;;;;;;;;;;;17.20;99.90;;;;;;5056481;28;20299;-75
2023/03/31 14:05:58;;;;;;;;;;;17.10;99.90;;;;;;5056002;28;19912;-75
2023/03/31 14:08:36;;;;;;;;;;;16.90;99.90;;;;;;5054406;28;19924;-75
2023/03/31 14:11:21;;;;;;;;;;;16.80;99.90;;;;;;5057351;28;19909;-75
2023/03/31 14:14:00;;;;;;;;;;;16.90;99.90;;;;;;5058486;28;20343;-75
2023/03/31 14:16:27;;;;;;;;;;;16.80;99.90;;;;;;5058314;28;19916;-75
2023/03/31 14:18:58;;;;;;;;;;;16.90;99.90;;;;;;5057619;28;20290;-75
2023/03/31 14:21:29;;;;;;;;;;;16.90;99.90;;;;;;5055903;28;19916;-75
2023/03/31 14:23:57;;;;;;;;;;;16.80;99.90;;;;;;5052800;28;20436;-75
2023/03/31 14:26:37;;;;;;;;;;;16.80;99.90;;;;;;5055001;28;20496;-75
2023/03/31 14:29:10;;;;;;;;;;;16.80;99.90;;;;;;5053473;28;19916;-75
2023/03/31 14:31:54;;;;;;;;;;;16.80;99.90;;;;;;5054994;28;19909;-75